createdAt,value
2018-09-17T00:00:08.946Z,1016.34
2018-09-17T00:01:08.902Z,1016.32
2018-09-17T00:02:08.857Z,1016.30
2018-09-17T00:03:08.813Z,1016.30
2018-09-17T00:04:08.766Z,1016.29
2018-09-17T00:05:08.720Z,1016.27
2018-09-17T00:06:08.676Z,1016.27
2018-09-17T00:07:08.631Z,1016.28
2018-09-17T00:08:08.589Z,1016.27
2018-09-17T00:09:08.544Z,1016.29
2018-09-17T00:10:08.500Z,1016.27
2018-09-17T00:11:08.451Z,1016.27
2018-09-17T00:12:08.407Z,1016.29
2018-09-17T00:13:08.362Z,1016.27
2018-09-17T00:14:08.316Z,1016.28
2018-09-17T00:15:08.273Z,1016.28
2018-09-17T00:16:08.228Z,1016.25
2018-09-17T00:17:08.183Z,1016.22
2018-09-17T00:18:08.145Z,1016.22
2018-09-17T00:19:08.090Z,1016.22
2018-09-17T00:20:08.048Z,1016.22
2018-09-17T00:21:08.003Z,1016.20
2018-09-17T00:22:07.957Z,1016.21
2018-09-17T00:23:07.914Z,1016.28
2018-09-17T00:24:07.867Z,1016.24
2018-09-17T00:25:07.822Z,1016.25
2018-09-17T00:26:07.776Z,1016.27
2018-09-17T00:27:07.731Z,1016.30
2018-09-17T00:28:07.686Z,1016.27
2018-09-17T00:29:07.642Z,1016.35
2018-09-17T00:30:07.598Z,1016.36
2018-09-17T00:31:07.565Z,1016.32
2018-09-17T00:32:07.506Z,1016.33
2018-09-17T00:33:07.459Z,1016.31
2018-09-17T00:34:07.415Z,1016.36
2018-09-17T00:35:07.382Z,1016.36
2018-09-17T00:36:07.328Z,1016.34
2018-09-17T00:37:07.289Z,1016.34
2018-09-17T00:38:07.238Z,1016.35
2018-09-17T00:39:07.190Z,1016.35
2018-09-17T00:40:07.144Z,1016.32
2018-09-17T00:41:07.099Z,1016.37
2018-09-17T00:42:07.054Z,1016.35
2018-09-17T00:43:07.010Z,1016.36
2018-09-17T00:44:06.964Z,1016.35
2018-09-17T00:45:06.918Z,1016.35
2018-09-17T00:46:06.875Z,1016.35
2018-09-17T00:47:06.828Z,1016.34
2018-09-17T00:48:06.783Z,1016.35
2018-09-17T00:49:06.735Z,1016.33
2018-09-17T00:50:06.691Z,1016.32
2018-09-17T00:51:06.649Z,1016.33
2018-09-17T00:52:06.602Z,1016.33
2018-09-17T00:53:06.559Z,1016.29
2018-09-17T00:54:06.512Z,1016.32
2018-09-17T00:55:06.477Z,1016.30
2018-09-17T00:56:06.424Z,1016.29
2018-09-17T00:57:06.479Z,1016.31
2018-09-17T00:58:06.334Z,1016.30
2018-09-17T00:59:06.287Z,1016.32
2018-09-17T01:00:06.242Z,1016.31
2018-09-17T01:01:06.198Z,1016.30
2018-09-17T01:02:06.151Z,1016.29
2018-09-17T01:03:06.107Z,1016.32
2018-09-17T01:04:06.062Z,1016.30
2018-09-17T01:05:06.021Z,1016.31
2018-09-17T01:06:05.969Z,1016.31
2018-09-17T01:07:05.925Z,1016.29
2018-09-17T01:08:05.889Z,1016.30
2018-09-17T01:09:05.837Z,1016.32
2018-09-17T01:10:05.793Z,1016.32
2018-09-17T01:11:05.743Z,1016.35
2018-09-17T01:12:05.697Z,1016.33
2018-09-17T01:13:05.650Z,1016.29
2018-09-17T01:14:05.608Z,1016.30
2018-09-17T01:15:05.565Z,1016.28
2018-09-17T01:16:05.516Z,1016.29
2018-09-17T01:17:05.474Z,1016.29
2018-09-17T01:18:05.430Z,1016.27
2018-09-17T01:19:05.384Z,1016.27
2018-09-17T01:20:05.335Z,1016.29
2018-09-17T01:21:05.291Z,1016.31
2018-09-17T01:22:05.249Z,1016.28
2018-09-17T01:23:05.202Z,1016.29
2018-09-17T01:24:05.158Z,1016.28
2018-09-17T01:25:05.110Z,1016.32
2018-09-17T01:26:05.067Z,1016.29
2018-09-17T01:27:05.019Z,1016.35
2018-09-17T01:28:04.973Z,1016.34
2018-09-17T01:29:04.928Z,1016.39
2018-09-17T01:30:04.888Z,1016.36
2018-09-17T01:31:04.838Z,1016.39
2018-09-17T01:32:04.792Z,1016.34
2018-09-17T01:33:04.749Z,1016.32
2018-09-17T01:34:04.703Z,1016.34
2018-09-17T01:35:04.658Z,1016.28
2018-09-17T01:36:04.612Z,1016.27
2018-09-17T01:37:04.574Z,1016.24
2018-09-17T01:38:04.522Z,1016.24
2018-09-17T01:39:04.477Z,1016.22
2018-09-17T01:40:04.432Z,1016.19
2018-09-17T01:41:04.385Z,1016.16
2018-09-17T01:42:04.342Z,1016.16
2018-09-17T01:43:04.295Z,1016.09
2018-09-17T01:44:04.249Z,1016.12
2018-09-17T01:45:04.206Z,1016.07
2018-09-17T01:46:04.167Z,1016.08
2018-09-17T01:47:04.115Z,1016.05
2018-09-17T01:48:04.066Z,1016.09
2018-09-17T01:49:04.026Z,1016.08
2018-09-17T01:50:03.976Z,1016.08
2018-09-17T01:51:03.936Z,1016.11
2018-09-17T01:52:03.887Z,1016.11
2018-09-17T01:53:03.843Z,1016.13
2018-09-17T01:54:03.795Z,1016.14
2018-09-17T01:55:03.761Z,1016.11
2018-09-17T01:56:03.712Z,1016.10
2018-09-17T01:57:03.660Z,1016.11
2018-09-17T01:58:03.612Z,1016.12
2018-09-17T01:59:03.572Z,1016.09
2018-09-17T02:00:03.525Z,1016.06
2018-09-17T02:01:03.481Z,1016.01
2018-09-17T02:02:03.437Z,1016.04
2018-09-17T02:03:03.386Z,1016.04
2018-09-17T02:04:03.347Z,1016.02
2018-09-17T02:05:03.294Z,1016.01
2018-09-17T02:06:03.250Z,1016.00
2018-09-17T02:07:03.210Z,1015.96
2018-09-17T02:08:03.210Z,1015.94
2018-09-17T02:09:03.120Z,1015.91
2018-09-17T02:10:03.137Z,1015.91
2018-09-17T02:11:03.024Z,1015.94
2018-09-17T02:12:02.990Z,1015.89
2018-09-17T02:13:02.933Z,1015.92
2018-09-17T02:14:02.887Z,1015.90
2018-09-17T02:15:02.841Z,1015.88
2018-09-17T02:16:02.795Z,1015.83
2018-09-17T02:17:02.751Z,1015.80
2018-09-17T02:18:02.704Z,1015.77
2018-09-17T02:19:02.662Z,1015.81
2018-09-17T02:20:02.616Z,1015.78
2018-09-17T02:21:02.570Z,1015.80
2018-09-17T02:22:02.530Z,1015.79
2018-09-17T02:23:02.481Z,1015.79
2018-09-17T02:24:02.433Z,1015.78
2018-09-17T02:25:02.391Z,1015.77
2018-09-17T02:26:02.349Z,1015.78
2018-09-17T02:27:02.299Z,1015.80
2018-09-17T02:28:02.251Z,1015.81
2018-09-17T02:29:02.207Z,1015.85
2018-09-17T02:30:02.161Z,1015.81
2018-09-17T02:31:02.116Z,1015.83
2018-09-17T02:32:02.071Z,1015.84
2018-09-17T02:33:02.034Z,1015.81
2018-09-17T02:34:01.983Z,1015.81
2018-09-17T02:35:01.932Z,1015.81
2018-09-17T02:36:01.896Z,1015.82
2018-09-17T02:37:01.841Z,1015.86
2018-09-17T02:38:01.801Z,1015.87
2018-09-17T02:39:01.768Z,1015.93
2018-09-17T02:40:01.710Z,1015.97
2018-09-17T02:41:01.662Z,1016.02
2018-09-17T02:42:01.617Z,1016.08
2018-09-17T02:43:01.572Z,1016.06
2018-09-17T02:44:01.529Z,1016.13
2018-09-17T02:45:01.482Z,1016.13
2018-09-17T02:46:01.431Z,1016.13
2018-09-17T02:47:01.387Z,1016.16
2018-09-17T02:48:01.345Z,1016.19
2018-09-17T02:49:01.295Z,1016.20
2018-09-17T02:50:01.248Z,1016.22
2018-09-17T02:51:01.204Z,1016.20
2018-09-17T02:52:01.160Z,1016.18
2018-09-17T02:53:01.113Z,1016.18
2018-09-17T02:54:01.072Z,1016.13
2018-09-17T02:55:01.028Z,1016.11
2018-09-17T02:56:00.976Z,1016.12
2018-09-17T02:57:00.931Z,1016.15
2018-09-17T02:58:00.887Z,1016.17
2018-09-17T02:59:00.842Z,1016.20
2018-09-17T03:00:00.799Z,1016.20
2018-09-17T03:01:00.748Z,1016.18
2018-09-17T03:02:00.704Z,1016.19
2018-09-17T03:03:00.661Z,1016.18
2018-09-17T03:04:00.616Z,1016.21
2018-09-17T03:05:00.571Z,1016.25
2018-09-17T03:06:00.522Z,1016.25
2018-09-17T03:07:00.477Z,1016.28
2018-09-17T03:08:00.431Z,1016.33
2018-09-17T03:09:00.384Z,1016.36
2018-09-17T03:10:00.339Z,1016.33
2018-09-17T03:11:00.295Z,1016.30
2018-09-17T03:12:00.250Z,1016.32
2018-09-17T03:13:00.202Z,1016.30
2018-09-17T03:14:00.160Z,1016.30
2018-09-17T03:15:00.116Z,1016.31
2018-09-17T03:16:00.074Z,1016.26
2018-09-17T03:17:00.022Z,1016.23
2018-09-17T03:17:59.976Z,1016.25
2018-09-17T03:18:59.930Z,1016.21
2018-09-17T03:19:59.890Z,1016.19
2018-09-17T03:20:59.839Z,1016.17
2018-09-17T03:21:59.800Z,1016.09
2018-09-17T03:22:59.753Z,1016.22
2018-09-17T03:23:59.704Z,1016.25
2018-09-17T03:24:59.663Z,1016.27
2018-09-17T03:25:59.614Z,1016.25
2018-09-17T03:26:59.571Z,1016.29
2018-09-17T03:27:59.524Z,1016.24
2018-09-17T03:28:59.475Z,1016.26
2018-09-17T03:29:59.431Z,1016.23
2018-09-17T03:30:59.384Z,1016.25
2018-09-17T03:31:59.340Z,1016.29
2018-09-17T03:32:59.293Z,1016.27
2018-09-17T03:33:59.248Z,1016.29
2018-09-17T03:34:59.201Z,1016.31
2018-09-17T03:35:59.157Z,1016.32
2018-09-17T03:36:59.112Z,1016.34
2018-09-17T03:37:59.065Z,1016.35
2018-09-17T03:38:59.025Z,1016.40
2018-09-17T03:39:58.972Z,1016.41
2018-09-17T03:40:58.928Z,1016.43
2018-09-17T03:41:58.882Z,1016.44
2018-09-17T03:42:58.837Z,1016.48
2018-09-17T03:43:58.790Z,1016.49
2018-09-17T03:44:58.746Z,1016.47
2018-09-17T03:45:58.704Z,1016.48
2018-09-17T03:46:58.663Z,1016.48
2018-09-17T03:47:58.609Z,1016.47
2018-09-17T03:48:58.564Z,1016.45
2018-09-17T03:49:58.518Z,1016.43
2018-09-17T03:50:58.473Z,1016.42
2018-09-17T03:51:58.430Z,1016.38
2018-09-17T03:52:58.382Z,1016.41
2018-09-17T03:53:58.341Z,1016.43
2018-09-17T03:54:58.292Z,1016.40
2018-09-17T03:55:58.243Z,1016.41
2018-09-17T03:56:58.199Z,1016.41
2018-09-17T03:57:58.153Z,1016.38
2018-09-17T03:58:58.108Z,1016.38
2018-09-17T03:59:58.063Z,1016.33
2018-09-17T04:00:58.018Z,1016.34
2018-09-17T04:01:57.970Z,1016.29
2018-09-17T04:02:57.929Z,1016.26
2018-09-17T04:03:57.881Z,1016.29
2018-09-17T04:04:57.834Z,1016.28
2018-09-17T04:05:57.792Z,1016.28
2018-09-17T04:06:57.749Z,1016.28
2018-09-17T04:07:57.703Z,1016.24
2018-09-17T04:08:57.654Z,1016.21
2018-09-17T04:09:57.606Z,1016.16
2018-09-17T04:10:57.570Z,1016.21
2018-09-17T04:11:57.514Z,1016.20
2018-09-17T04:12:57.468Z,1016.21
2018-09-17T04:13:57.423Z,1016.22
2018-09-17T04:14:57.388Z,1016.20
2018-09-17T04:15:57.335Z,1016.15
2018-09-17T04:16:57.287Z,1016.14
2018-09-17T04:17:57.242Z,1016.12
2018-09-17T04:18:57.198Z,1016.11
2018-09-17T04:19:57.156Z,1016.07
2018-09-17T04:20:57.104Z,1016.08
2018-09-17T04:21:57.059Z,1016.08
2018-09-17T04:22:57.015Z,1016.04
2018-09-17T04:23:56.967Z,1016.08
2018-09-17T04:24:56.920Z,1016.10
2018-09-17T04:25:56.875Z,1016.08
2018-09-17T04:26:56.833Z,1016.11
2018-09-17T04:27:56.786Z,1016.06
2018-09-17T04:28:56.741Z,1016.11
2018-09-17T04:29:56.694Z,1016.06
2018-09-17T04:30:56.649Z,1016.07
2018-09-17T04:31:56.603Z,1016.04
2018-09-17T04:32:56.609Z,1016.09
2018-09-17T04:33:56.510Z,1016.07
2018-09-17T04:34:56.465Z,1016.07
2018-09-17T04:35:56.422Z,1016.05
2018-09-17T04:36:56.375Z,1016.07
2018-09-17T04:37:56.330Z,1016.08
2018-09-17T04:38:56.281Z,1016.06
2018-09-17T04:39:56.270Z,1016.07
2018-09-17T04:40:56.191Z,1016.08
2018-09-17T04:41:56.150Z,1016.07
2018-09-17T04:42:56.100Z,1016.13
2018-09-17T04:43:56.053Z,1016.13
2018-09-17T04:44:56.008Z,1016.13
2018-09-17T04:45:55.961Z,1016.14
2018-09-17T04:46:55.917Z,1016.14
2018-09-17T04:47:55.870Z,1016.15
2018-09-17T04:48:55.827Z,1016.18
2018-09-17T04:49:55.781Z,1016.20
2018-09-17T04:50:55.735Z,1016.20
2018-09-17T04:51:55.692Z,1016.17
2018-09-17T04:52:55.645Z,1016.16
2018-09-17T04:53:55.616Z,1016.21
2018-09-17T04:54:55.552Z,1016.10
2018-09-17T04:55:55.511Z,1016.21
2018-09-17T04:56:55.462Z,1016.21
2018-09-17T04:57:55.413Z,1016.22
2018-09-17T04:58:55.371Z,1016.22
2018-09-17T04:59:55.330Z,1016.22
2018-09-17T05:00:55.278Z,1016.25
2018-09-17T05:01:55.235Z,1016.26
2018-09-17T05:02:55.185Z,1016.29
2018-09-17T05:03:55.140Z,1016.29
2018-09-17T05:04:55.095Z,1016.28
2018-09-17T05:05:55.049Z,1016.31
2018-09-17T05:06:55.005Z,1016.34
2018-09-17T05:07:54.957Z,1016.31
2018-09-17T05:08:54.912Z,1016.28
2018-09-17T05:09:54.872Z,1016.26
2018-09-17T05:10:54.829Z,1016.26
2018-09-17T05:11:54.775Z,1016.23
2018-09-17T05:12:54.753Z,1016.27
2018-09-17T05:13:54.684Z,1016.30
2018-09-17T05:14:54.639Z,1016.29
2018-09-17T05:15:54.593Z,1016.33
2018-09-17T05:16:54.549Z,1016.34
2018-09-17T05:17:54.508Z,1016.36
2018-09-17T05:18:54.458Z,1016.36
2018-09-17T05:19:54.412Z,1016.40
2018-09-17T05:20:54.366Z,1016.40
2018-09-17T05:21:54.320Z,1016.39
2018-09-17T05:22:54.278Z,1016.47
2018-09-17T05:23:54.230Z,1016.46
2018-09-17T05:24:54.184Z,1016.41
2018-09-17T05:25:54.138Z,1016.38
2018-09-17T05:26:54.188Z,1016.34
2018-09-17T05:27:54.046Z,1016.33
2018-09-17T05:28:54.002Z,1016.33
2018-09-17T05:29:53.962Z,1016.33
2018-09-17T05:30:53.911Z,1016.35
2018-09-17T05:31:53.868Z,1016.43
2018-09-17T05:32:53.828Z,1016.42
2018-09-17T05:33:53.780Z,1016.46
2018-09-17T05:34:53.780Z,1016.52
2018-09-17T05:35:53.685Z,1016.53
2018-09-17T05:36:53.637Z,1016.58
2018-09-17T05:37:53.593Z,1016.60
2018-09-17T05:38:53.546Z,1016.59
2018-09-17T05:39:53.504Z,1016.65
2018-09-17T05:40:53.458Z,1016.61
2018-09-17T05:41:53.415Z,1016.58
2018-09-17T05:42:53.365Z,1016.60
2018-09-17T05:43:53.320Z,1016.61
2018-09-17T05:44:53.273Z,1016.57
2018-09-17T05:45:53.231Z,1016.60
2018-09-17T05:46:53.185Z,1016.64
2018-09-17T05:47:53.141Z,1016.61
2018-09-17T05:48:53.092Z,1016.64
2018-09-17T05:49:53.050Z,1016.65
2018-09-17T05:50:53.037Z,1016.64
2018-09-17T05:51:52.958Z,1016.67
2018-09-17T05:52:52.912Z,1016.65
2018-09-17T05:53:52.889Z,1016.68
2018-09-17T05:54:52.821Z,1016.70
2018-09-17T05:55:52.779Z,1016.67
2018-09-17T05:56:52.731Z,1016.66
2018-09-17T05:57:52.683Z,1016.69
2018-09-17T05:58:52.639Z,1016.67
2018-09-17T05:59:52.594Z,1016.67
2018-09-17T06:00:52.547Z,1016.67
2018-09-17T06:01:52.504Z,1016.69
2018-09-17T06:02:52.459Z,1016.67
2018-09-17T06:03:52.413Z,1016.63
2018-09-17T06:04:52.379Z,1016.63
2018-09-17T06:05:52.326Z,1016.63
2018-09-17T06:06:52.312Z,1016.64
2018-09-17T06:07:52.235Z,1016.68
2018-09-17T06:08:52.185Z,1016.70
2018-09-17T06:09:52.257Z,1016.72
2018-09-17T06:10:52.095Z,1016.73
2018-09-17T06:11:52.137Z,1016.74
2018-09-17T06:12:52.008Z,1016.77
2018-09-17T06:13:51.961Z,1016.80
2018-09-17T06:14:51.913Z,1016.82
2018-09-17T06:15:51.869Z,1016.80
2018-09-17T06:16:51.823Z,1016.81
2018-09-17T06:17:51.779Z,1016.80
2018-09-17T06:18:51.738Z,1016.82
2018-09-17T06:19:51.693Z,1016.76
2018-09-17T06:20:51.641Z,1016.78
2018-09-17T06:21:51.605Z,1016.83
2018-09-17T06:22:51.553Z,1016.83
2018-09-17T06:23:51.508Z,1016.78
2018-09-17T06:24:51.462Z,1016.85
2018-09-17T06:25:51.416Z,1016.90
2018-09-17T06:26:51.372Z,1016.89
2018-09-17T06:27:51.325Z,1016.94
2018-09-17T06:28:51.372Z,1016.96
2018-09-17T06:29:51.237Z,1016.97
2018-09-17T06:30:51.191Z,1016.96
2018-09-17T06:31:51.147Z,1016.98
2018-09-17T06:32:51.100Z,1016.99
2018-09-17T06:33:51.061Z,1017.00
2018-09-17T06:34:51.010Z,1017.02
2018-09-17T06:35:50.966Z,1017.00
2018-09-17T06:36:50.923Z,1017.02
2018-09-17T06:37:50.881Z,1017.04
2018-09-17T06:38:50.834Z,1017.05
2018-09-17T06:39:50.785Z,1017.05
2018-09-17T06:40:50.739Z,1017.05
2018-09-17T06:41:50.702Z,1017.09
2018-09-17T06:42:50.653Z,1017.09
2018-09-17T06:43:50.607Z,1017.10
2018-09-17T06:44:50.601Z,1017.07
2018-09-17T06:45:50.518Z,1017.10
2018-09-17T06:46:50.472Z,1017.03
2018-09-17T06:47:50.428Z,1017.03
2018-09-17T06:48:50.379Z,1017.07
2018-09-17T06:49:50.336Z,1017.05
2018-09-17T06:50:50.291Z,1017.06
2018-09-17T06:51:50.244Z,1017.06
2018-09-17T06:52:50.203Z,1017.03
2018-09-17T06:53:50.159Z,1017.01
2018-09-17T06:54:50.113Z,1017.04
2018-09-17T06:55:50.067Z,1017.02
2018-09-17T06:56:50.023Z,1017.01
2018-09-17T06:57:49.980Z,1017.02
2018-09-17T06:58:49.937Z,1017.00
2018-09-17T06:59:49.887Z,1016.95
2018-09-17T07:00:49.844Z,1016.97
2018-09-17T07:01:49.800Z,1016.97
2018-09-17T07:02:49.754Z,1016.96
2018-09-17T07:03:49.714Z,1016.94
2018-09-17T07:04:49.666Z,1016.93
2018-09-17T07:05:49.623Z,1016.95
2018-09-17T07:06:49.580Z,1016.90
2018-09-17T07:07:49.534Z,1016.87
2018-09-17T07:08:49.488Z,1016.89
2018-09-17T07:09:49.448Z,1016.88
2018-09-17T07:10:49.407Z,1016.84
2018-09-17T07:11:49.360Z,1016.89
2018-09-17T07:12:49.318Z,1016.88
2018-09-17T07:13:49.276Z,1016.87
2018-09-17T07:14:49.224Z,1016.85
2018-09-17T07:15:49.181Z,1016.92
2018-09-17T07:16:49.138Z,1016.82
2018-09-17T07:17:49.094Z,1016.84
2018-09-17T07:18:49.060Z,1016.86
2018-09-17T07:19:49.008Z,1016.81
2018-09-17T07:20:48.963Z,1016.79
2018-09-17T07:21:48.918Z,1016.80
2018-09-17T07:22:48.876Z,1016.75
2018-09-17T07:23:48.831Z,1016.72
2018-09-17T07:24:48.791Z,1016.76
2018-09-17T07:25:48.745Z,1016.78
2018-09-17T07:26:48.707Z,1016.77
2018-09-17T07:27:48.659Z,1016.78
2018-09-17T07:28:48.614Z,1016.75
2018-09-17T07:29:48.572Z,1016.79
2018-09-17T07:30:48.531Z,1016.82
2018-09-17T07:32:48.446Z,1016.81
2018-09-17T07:33:48.401Z,1016.81
2018-09-17T07:34:48.357Z,1016.81
2018-09-17T07:35:48.314Z,1016.80
2018-09-17T07:36:48.269Z,1016.80
2018-09-17T07:37:48.227Z,1016.80
2018-09-17T07:38:48.185Z,1016.84
2018-09-17T07:39:48.143Z,1016.85
2018-09-17T07:40:48.105Z,1016.84
2018-09-17T07:41:48.063Z,1016.87
2018-09-17T07:42:48.040Z,1016.88
2018-09-17T07:43:47.973Z,1016.87
2018-09-17T07:44:47.930Z,1016.85
2018-09-17T07:45:47.887Z,1016.89
2018-09-17T07:46:47.845Z,1016.92
2018-09-17T07:47:47.832Z,1016.87
2018-09-17T07:48:47.761Z,1016.89
2018-09-17T07:49:47.719Z,1016.88
2018-09-17T07:50:47.675Z,1016.88
2018-09-17T07:51:47.632Z,1016.84
2018-09-17T07:52:47.613Z,1016.89
2018-09-17T07:53:47.552Z,1016.91
2018-09-17T07:54:47.518Z,1016.92
2018-09-17T07:55:47.467Z,1016.91
2018-09-17T07:56:47.426Z,1016.91
2018-09-17T07:57:47.382Z,1016.84
2018-09-17T07:58:47.366Z,1016.92
2018-09-17T07:59:47.296Z,1016.92
2018-09-17T08:00:47.253Z,1016.95
2018-09-17T08:01:47.213Z,1016.96
2018-09-17T08:02:47.174Z,1016.95
2018-09-17T08:03:47.130Z,1016.96
2018-09-17T08:04:47.086Z,1016.94
2018-09-17T08:05:47.060Z,1016.95
2018-09-17T08:06:47.008Z,1016.94
2018-09-17T08:07:46.970Z,1017.00
2018-09-17T08:08:46.926Z,1016.93
2018-09-17T08:09:46.881Z,1016.91
2018-09-17T08:10:46.842Z,1016.87
2018-09-17T08:11:46.800Z,1016.84
2018-09-17T08:12:46.759Z,1016.84
2018-09-17T08:13:46.721Z,1016.85
2018-09-17T08:14:46.678Z,1016.81
2018-09-17T08:15:46.633Z,1016.81
2018-09-17T08:16:46.591Z,1016.79
2018-09-17T08:17:46.553Z,1016.81
2018-09-17T08:18:46.519Z,1016.73
2018-09-17T08:19:46.538Z,1016.79
2018-09-17T08:20:46.427Z,1016.80
2018-09-17T08:21:46.387Z,1016.79
2018-09-17T08:22:46.346Z,1016.74
2018-09-17T08:23:46.307Z,1016.72
2018-09-17T08:24:46.266Z,1016.71
2018-09-17T08:25:46.225Z,1016.68
2018-09-17T08:26:46.181Z,1016.68
2018-09-17T08:27:46.139Z,1016.71
2018-09-17T08:28:46.100Z,1016.71
2018-09-17T08:29:46.061Z,1016.75
2018-09-17T08:30:46.018Z,1016.77
2018-09-17T08:31:45.977Z,1016.76
2018-09-17T08:32:45.936Z,1016.78
2018-09-17T08:33:45.896Z,1016.75
2018-09-17T08:34:45.860Z,1016.79
2018-09-17T08:35:45.813Z,1016.82
2018-09-17T08:36:45.773Z,1016.82
2018-09-17T08:37:45.732Z,1016.83
2018-09-17T08:38:45.693Z,1016.86
2018-09-17T08:39:45.654Z,1016.85
2018-09-17T08:40:45.615Z,1016.86
2018-09-17T08:41:45.573Z,1016.89
2018-09-17T08:42:45.534Z,1016.92
2018-09-17T08:43:45.489Z,1016.85
2018-09-17T08:44:45.449Z,1016.86
2018-09-17T08:45:45.410Z,1016.89
2018-09-17T08:46:45.371Z,1016.87
2018-09-17T08:47:45.330Z,1016.86
2018-09-17T08:48:45.289Z,1016.85
2018-09-17T08:49:45.255Z,1016.83
2018-09-17T08:50:45.206Z,1016.85
2018-09-17T08:51:45.170Z,1016.87
2018-09-17T08:52:45.185Z,1016.86
2018-09-17T08:53:45.085Z,1016.90
2018-09-17T08:54:45.045Z,1016.87
2018-09-17T08:55:45.007Z,1016.88
2018-09-17T08:56:44.966Z,1016.85
2018-09-17T08:57:44.924Z,1016.89
2018-09-17T08:58:44.890Z,1016.88
2018-09-17T08:59:44.846Z,1016.86
2018-09-17T09:00:44.804Z,1016.80
2018-09-17T09:01:44.764Z,1016.84
2018-09-17T09:02:44.726Z,1016.81
2018-09-17T09:03:44.683Z,1016.82
2018-09-17T09:04:44.644Z,1016.84
2018-09-17T09:05:44.604Z,1016.81
2018-09-17T09:06:44.567Z,1016.87
2018-09-17T09:07:44.526Z,1016.82
2018-09-17T09:08:44.485Z,1016.84
2018-09-17T09:09:44.448Z,1016.83
2018-09-17T09:10:44.405Z,1016.83
2018-09-17T09:11:44.365Z,1016.78
2018-09-17T09:12:44.323Z,1016.82
2018-09-17T09:13:44.288Z,1016.81
2018-09-17T09:14:44.247Z,1016.80
2018-09-17T09:15:44.211Z,1016.77
2018-09-17T09:16:44.166Z,1016.81
2018-09-17T09:17:44.125Z,1016.77
2018-09-17T09:18:44.088Z,1016.75
2018-09-17T09:19:44.054Z,1016.78
2018-09-17T09:20:44.006Z,1016.79
2018-09-17T09:21:43.968Z,1016.79
2018-09-17T09:22:43.928Z,1016.77
2018-09-17T09:23:43.890Z,1016.78
2018-09-17T09:24:43.848Z,1016.76
2018-09-17T09:25:43.805Z,1016.78
2018-09-17T09:26:50.082Z,1016.74
2018-09-17T09:27:43.779Z,1016.73
2018-09-17T09:28:43.693Z,1016.71
2018-09-17T09:29:43.646Z,1016.68
2018-09-17T09:30:43.627Z,1016.68
2018-09-17T09:31:43.568Z,1016.70
2018-09-17T09:32:43.527Z,1016.68
2018-09-17T09:33:43.489Z,1016.67
2018-09-17T09:34:43.449Z,1016.73
2018-09-17T09:35:43.409Z,1016.68
2018-09-17T09:36:43.371Z,1016.66
2018-09-17T09:37:43.331Z,1016.68
2018-09-17T09:38:43.290Z,1016.67
2018-09-17T09:39:43.251Z,1016.64
2018-09-17T09:40:43.881Z,1016.65
2018-09-17T09:41:43.171Z,1016.62
2018-09-17T09:42:43.131Z,1016.59
2018-09-17T09:43:43.093Z,1016.59
2018-09-17T09:44:43.052Z,1016.59
2018-09-17T09:45:43.014Z,1016.58
2018-09-17T09:46:42.975Z,1016.59
2018-09-17T09:47:42.936Z,1016.62
2018-09-17T09:48:42.896Z,1016.59
2018-09-17T09:49:42.854Z,1016.58
2018-09-17T09:50:42.815Z,1016.62
2018-09-17T09:51:42.775Z,1016.59
2018-09-17T09:52:42.768Z,1016.55
2018-09-17T09:53:42.697Z,1016.59
2018-09-17T09:54:42.658Z,1016.59
2018-09-17T09:55:42.620Z,1016.57
2018-09-17T09:56:42.578Z,1016.53
2018-09-17T09:57:42.539Z,1016.52
2018-09-17T09:58:42.499Z,1016.50
2018-09-17T09:59:42.519Z,1016.48
2018-09-17T10:00:42.423Z,1016.48
2018-09-17T10:01:42.381Z,1016.51
2018-09-17T10:02:42.342Z,1016.49
2018-09-17T10:03:42.302Z,1016.48
2018-09-17T10:04:42.267Z,1016.47
2018-09-17T10:05:42.228Z,1016.47
2018-09-17T10:06:42.187Z,1016.46
2018-09-17T10:07:42.147Z,1016.46
2018-09-17T10:08:42.105Z,1016.49
2018-09-17T10:09:42.199Z,1016.48
2018-09-17T10:10:42.032Z,1016.47
2018-09-17T10:11:42.026Z,1016.47
2018-09-17T10:12:41.948Z,1016.47
2018-09-17T10:13:41.911Z,1016.45
2018-09-17T10:14:41.870Z,1016.46
2018-09-17T10:15:41.832Z,1016.44
2018-09-17T10:16:41.792Z,1016.43
2018-09-17T10:17:41.755Z,1016.44
2018-09-17T10:18:41.715Z,1016.45
2018-09-17T10:19:41.677Z,1016.44
2018-09-17T10:20:41.643Z,1016.38
2018-09-17T10:21:41.596Z,1016.40
2018-09-17T10:22:41.561Z,1016.38
2018-09-17T10:23:41.523Z,1016.35
2018-09-17T10:24:41.479Z,1016.41
2018-09-17T10:25:41.446Z,1016.36
2018-09-17T10:26:41.403Z,1016.39
2018-09-17T10:27:41.365Z,1016.33
2018-09-17T10:28:41.324Z,1016.37
2018-09-17T10:29:41.285Z,1016.36
2018-09-17T10:30:41.248Z,1016.36
2018-09-17T10:31:41.207Z,1016.37
2018-09-17T10:32:41.169Z,1016.35
2018-09-17T10:33:41.131Z,1016.33
2018-09-17T10:34:41.093Z,1016.33
2018-09-17T10:35:41.051Z,1016.31
2018-09-17T10:36:41.022Z,1016.30
2018-09-17T10:37:40.974Z,1016.30
2018-09-17T10:38:40.937Z,1016.24
2018-09-17T10:39:40.960Z,1016.24
2018-09-17T10:40:40.858Z,1016.27
2018-09-17T10:41:40.824Z,1016.27
2018-09-17T10:42:40.785Z,1016.26
2018-09-17T10:43:40.746Z,1016.24
2018-09-17T10:44:40.706Z,1016.14
2018-09-17T10:45:40.667Z,1016.16
2018-09-17T10:46:40.628Z,1016.17
2018-09-17T10:47:40.589Z,1016.16
2018-09-17T10:48:40.550Z,1016.10
2018-09-17T10:49:40.511Z,1016.13
2018-09-17T10:50:40.475Z,1016.12
2018-09-17T10:51:40.482Z,1016.15
2018-09-17T10:52:40.394Z,1016.14
2018-09-17T10:53:40.356Z,1016.13
2018-09-17T10:54:40.319Z,1016.13
2018-09-17T10:55:40.279Z,1016.11
2018-09-17T10:56:40.240Z,1016.12
2018-09-17T10:57:40.203Z,1016.14
2018-09-17T10:58:40.198Z,1016.14
2018-09-17T10:59:40.127Z,1016.14
2018-09-17T11:00:40.087Z,1016.15
2018-09-17T11:01:40.050Z,1016.09
2018-09-17T11:02:40.009Z,1016.08
2018-09-17T11:03:39.971Z,1016.07
2018-09-17T11:04:39.931Z,1016.01
2018-09-17T11:05:39.900Z,1016.07
2018-09-17T11:06:39.856Z,1016.03
2018-09-17T11:07:39.815Z,1016.03
2018-09-17T11:08:39.782Z,1015.96
2018-09-17T11:09:40.304Z,1015.96
2018-09-17T11:10:40.441Z,1015.96
2018-09-17T11:11:39.662Z,1015.94
2018-09-17T11:12:39.623Z,1015.96
2018-09-17T11:13:39.586Z,1015.91
2018-09-17T11:14:39.549Z,1015.89
2018-09-17T11:15:39.508Z,1015.89
2018-09-17T11:16:39.470Z,1015.89
2018-09-17T11:17:39.459Z,1015.89
2018-09-17T11:18:39.400Z,1015.90
2018-09-17T11:19:39.355Z,1015.86
2018-09-17T11:20:39.317Z,1015.82
2018-09-17T11:21:39.280Z,1015.84
2018-09-17T11:22:39.239Z,1015.82
2018-09-17T11:23:39.456Z,1015.81
2018-09-17T11:24:39.307Z,1015.82
2018-09-17T11:25:39.125Z,1015.84
2018-09-17T11:26:39.094Z,1015.83
2018-09-17T11:27:39.050Z,1015.79
2018-09-17T11:28:39.010Z,1015.78
2018-09-17T11:29:38.971Z,1015.75
2018-09-17T11:30:38.933Z,1015.80
2018-09-17T11:31:38.895Z,1015.84
2018-09-17T11:32:39.118Z,1015.81
2018-09-17T11:33:38.985Z,1015.82
2018-09-17T11:34:38.887Z,1015.85
2018-09-17T11:35:38.796Z,1015.80
2018-09-17T11:36:38.728Z,1015.80
2018-09-17T11:37:38.668Z,1015.74
2018-09-17T11:38:38.670Z,1015.78
2018-09-17T11:39:38.587Z,1015.75
2018-09-17T11:40:38.549Z,1015.74
2018-09-17T11:41:38.517Z,1015.78
2018-09-17T11:42:38.509Z,1015.73
2018-09-17T11:43:38.443Z,1015.73
2018-09-17T11:44:38.649Z,1015.72
2018-09-17T11:45:38.365Z,1015.69
2018-09-17T11:46:38.321Z,1015.68
2018-09-17T11:47:38.284Z,1015.69
2018-09-17T11:48:38.244Z,1015.71
2018-09-17T11:49:38.211Z,1015.70
2018-09-17T11:50:38.169Z,1015.71
2018-09-17T11:51:38.134Z,1015.70
2018-09-17T11:52:38.168Z,1015.69
2018-09-17T11:53:38.105Z,1015.71
2018-09-17T11:54:38.017Z,1015.70
2018-09-17T11:55:37.981Z,1015.70
2018-09-17T11:56:37.945Z,1015.75
2018-09-17T11:57:37.981Z,1015.76
2018-09-17T11:58:37.885Z,1015.74
2018-09-17T11:59:37.847Z,1015.74
2018-09-17T12:00:37.804Z,1015.73
2018-09-17T12:01:38.119Z,1015.73
2018-09-17T12:02:38.407Z,1015.69
2018-09-17T12:03:37.754Z,1015.69
2018-09-17T12:04:37.780Z,1015.66
2018-09-17T12:05:37.711Z,1015.66